sensor_id;sensor_type;location;lat;lon;timestamp;pressure;altitude;pressure_sealevel;temperature;humidity
73073;BME280;61260;51.090;-1.786;2022-08-03T00:02:21;100776.45;;;18.56;79.57
73073;BME280;61260;51.090;-1.786;2022-08-03T00:04:51;100772.43;;;18.58;79.44
73073;BME280;61260;51.090;-1.786;2022-08-03T00:07:21;100765.73;;;18.61;79.34
73073;BME280;61260;51.090;-1.786;2022-08-03T00:09:51;100771.17;;;18.62;79.59
73073;BME280;61260;51.090;-1.786;2022-08-03T00:12:20;100766.84;;;18.62;79.41
73073;BME280;61260;51.090;-1.786;2022-08-03T00:14:50;100761.70;;;18.64;79.08
73073;BME280;61260;51.090;-1.786;2022-08-03T00:17:20;100763.20;;;18.67;79.24
73073;BME280;61260;51.090;-1.786;2022-08-03T00:19:50;100765.03;;;18.69;79.15
73073;BME280;61260;51.090;-1.786;2022-08-03T00:22:19;100762.41;;;18.71;78.94
73073;BME280;61260;51.090;-1.786;2022-08-03T00:24:49;100763.52;;;18.74;78.76
73073;BME280;61260;51.090;-1.786;2022-08-03T00:27:19;100761.07;;;18.78;78.66
73073;BME280;61260;51.090;-1.786;2022-08-03T00:29:48;100765.35;;;18.81;78.51
73073;BME280;61260;51.090;-1.786;2022-08-03T00:32:18;100759.26;;;18.83;78.42
73073;BME280;61260;51.090;-1.786;2022-08-03T00:34:48;100760.20;;;18.84;78.34
73073;BME280;61260;51.090;-1.786;2022-08-03T00:37:18;100758.23;;;18.85;78.32
73073;BME280;61260;51.090;-1.786;2022-08-03T00:39:47;100755.01;;;18.87;78.17
73073;BME280;61260;51.090;-1.786;2022-08-03T00:42:17;100750.58;;;18.88;78.26
73073;BME280;61260;51.090;-1.786;2022-08-03T00:44:47;100750.65;;;18.90;78.04
73073;BME280;61260;51.090;-1.786;2022-08-03T00:47:17;100750.49;;;18.93;78.02
73073;BME280;61260;51.090;-1.786;2022-08-03T00:49:46;100751.91;;;18.96;77.89
73073;BME280;61260;51.090;-1.786;2022-08-03T00:52:16;100752.00;;;18.95;77.83
73073;BME280;61260;51.090;-1.786;2022-08-03T00:54:46;100752.94;;;18.95;77.90
73073;BME280;61260;51.090;-1.786;2022-08-03T00:57:16;100748.35;;;18.97;77.73
73073;BME280;61260;51.090;-1.786;2022-08-03T00:59:46;100748.03;;;18.98;77.69
73073;BME280;61260;51.090;-1.786;2022-08-03T01:02:16;100744.55;;;18.98;77.70
73073;BME280;61260;51.090;-1.786;2022-08-03T01:04:46;100744.86;;;18.97;77.68
73073;BME280;61260;51.090;-1.786;2022-08-03T01:07:24;100750.01;;;18.98;77.66
73073;BME280;61260;51.090;-1.786;2022-08-03T01:10:03;100743.92;;;18.98;77.75
73073;BME280;61260;51.090;-1.786;2022-08-03T01:12:40;100745.26;;;18.98;77.70
73073;BME280;61260;51.090;-1.786;2022-08-03T01:15:16;100740.91;;;18.97;77.73
73073;BME280;61260;51.090;-1.786;2022-08-03T01:17:53;100736.16;;;18.97;77.71
73073;BME280;61260;51.090;-1.786;2022-08-03T01:20:26;100733.48;;;18.96;77.75
73073;BME280;61260;51.090;-1.786;2022-08-03T01:23:13;100732.86;;;18.94;77.64
73073;BME280;61260;51.090;-1.786;2022-08-03T01:26:08;100724.31;;;18.92;77.79
73073;BME280;61260;51.090;-1.786;2022-08-03T01:28:53;100720.68;;;18.94;77.75
73073;BME280;61260;51.090;-1.786;2022-08-03T01:31:30;100723.67;;;18.95;77.71
73073;BME280;61260;51.090;-1.786;2022-08-03T01:34:05;100714.11;;;18.94;77.78
73073;BME280;61260;51.090;-1.786;2022-08-03T01:36:38;100708.34;;;18.96;77.82
73073;BME280;61260;51.090;-1.786;2022-08-03T01:39:08;100707.46;;;18.97;78.02
73073;BME280;61260;51.090;-1.786;2022-08-03T01:41:51;100709.60;;;18.99;77.88
73073;BME280;61260;51.090;-1.786;2022-08-03T01:44:23;100704.30;;;18.98;78.03
73073;BME280;61260;51.090;-1.786;2022-08-03T01:46:53;100701.13;;;18.97;78.25
73073;BME280;61260;51.090;-1.786;2022-08-03T01:49:25;100703.04;;;18.96;78.27
73073;BME280;61260;51.090;-1.786;2022-08-03T01:51:56;100700.10;;;18.96;78.47
73073;BME280;61260;51.090;-1.786;2022-08-03T01:54:28;100697.81;;;18.95;78.25
73073;BME280;61260;51.090;-1.786;2022-08-03T01:57:00;100700.19;;;18.96;78.55
73073;BME280;61260;51.090;-1.786;2022-08-03T01:59:31;100696.71;;;18.95;78.70
73073;BME280;61260;51.090;-1.786;2022-08-03T02:02:02;100697.19;;;18.95;78.75
73073;BME280;61260;51.090;-1.786;2022-08-03T02:04:33;100697.58;;;18.95;78.94
73073;BME280;61260;51.090;-1.786;2022-08-03T02:07:04;100698.45;;;18.94;78.84
73073;BME280;61260;51.090;-1.786;2022-08-03T02:09:37;100695.30;;;18.93;79.11
73073;BME280;61260;51.090;-1.786;2022-08-03T02:12:10;100692.76;;;18.95;79.08
73073;BME280;61260;51.090;-1.786;2022-08-03T02:14:42;100689.60;;;18.95;78.80
73073;BME280;61260;51.090;-1.786;2022-08-03T02:17:13;100690.55;;;18.94;79.14
73073;BME280;61260;51.090;-1.786;2022-08-03T02:19:43;100690.86;;;18.93;79.09
73073;BME280;61260;51.090;-1.786;2022-08-03T02:22:14;100689.52;;;18.91;79.56
73073;BME280;61260;51.090;-1.786;2022-08-03T02:24:44;100693.95;;;18.88;79.71
73073;BME280;61260;51.090;-1.786;2022-08-03T02:27:19;100687.95;;;18.85;79.76
73073;BME280;61260;51.090;-1.786;2022-08-03T02:29:54;100686.84;;;18.86;79.74
73073;BME280;61260;51.090;-1.786;2022-08-03T02:32:30;100684.23;;;18.89;79.69
73073;BME280;61260;51.090;-1.786;2022-08-03T02:35:01;100678.69;;;18.92;79.91
73073;BME280;61260;51.090;-1.786;2022-08-03T02:40:20;100683.59;;;18.95;79.62
73073;BME280;61260;51.090;-1.786;2022-08-03T02:42:54;100682.71;;;18.96;79.90
73073;BME280;61260;51.090;-1.786;2022-08-03T02:45:27;100682.47;;;18.98;79.85
73073;BME280;61260;51.090;-1.786;2022-08-03T02:47:59;100682.47;;;18.98;79.86
73073;BME280;61260;51.090;-1.786;2022-08-03T02:50:29;100682.31;;;18.99;79.96
73073;BME280;61260;51.090;-1.786;2022-08-03T02:53:02;100685.47;;;19.01;79.76
73073;BME280;61260;51.090;-1.786;2022-08-03T02:55:35;100682.48;;;19.03;79.81
73073;BME280;61260;51.090;-1.786;2022-08-03T02:58:06;100682.48;;;19.05;79.83
73073;BME280;61260;51.090;-1.786;2022-08-03T03:00:38;100683.65;;;19.06;79.65
73073;BME280;61260;51.090;-1.786;2022-08-03T03:03:10;100687.05;;;19.07;79.93
73073;BME280;61260;51.090;-1.786;2022-08-03T03:05:41;100687.75;;;19.09;79.93
73073;BME280;61260;51.090;-1.786;2022-08-03T03:08:13;100694.23;;;19.10;79.98
73073;BME280;61260;51.090;-1.786;2022-08-03T03:10:43;100694.79;;;19.10;79.88
73073;BME280;61260;51.090;-1.786;2022-08-03T03:13:14;100694.95;;;19.09;79.81
73073;BME280;61260;51.090;-1.786;2022-08-03T03:15:45;100692.42;;;19.09;79.87
73073;BME280;61260;51.090;-1.786;2022-08-03T03:18:17;100697.88;;;19.11;79.83
73073;BME280;61260;51.090;-1.786;2022-08-03T03:20:48;100696.54;;;19.10;80.18
73073;BME280;61260;51.090;-1.786;2022-08-03T03:23:18;100694.95;;;19.10;80.10
73073;BME280;61260;51.090;-1.786;2022-08-03T03:25:49;100695.19;;;19.10;79.90
73073;BME280;61260;51.090;-1.786;2022-08-03T03:28:20;100700.57;;;19.11;79.95
73073;BME280;61260;51.090;-1.786;2022-08-03T03:30:50;100702.08;;;19.09;80.25
73073;BME280;61260;51.090;-1.786;2022-08-03T03:33:21;100703.19;;;19.08;80.32
73073;BME280;61260;51.090;-1.786;2022-08-03T03:35:51;100703.98;;;19.09;80.16
73073;BME280;61260;51.090;-1.786;2022-08-03T03:38:21;100704.76;;;19.11;80.15
73073;BME280;61260;51.090;-1.786;2022-08-03T03:40:51;100701.67;;;19.14;80.16
73073;BME280;61260;51.090;-1.786;2022-08-03T03:43:23;100702.94;;;19.13;80.58
73073;BME280;61260;51.090;-1.786;2022-08-03T03:45:53;100701.76;;;19.09;80.53
73073;BME280;61260;51.090;-1.786;2022-08-03T03:48:24;100696.06;;;19.07;80.50
73073;BME280;61260;51.090;-1.786;2022-08-03T03:50:54;100695.42;;;19.08;80.53
73073;BME280;61260;51.090;-1.786;2022-08-03T03:53:26;100691.16;;;19.08;80.71
73073;BME280;61260;51.090;-1.786;2022-08-03T03:55:56;100696.55;;;19.07;80.72
73073;BME280;61260;51.090;-1.786;2022-08-03T03:58:26;100696.15;;;19.06;80.91
73073;BME280;61260;51.090;-1.786;2022-08-03T04:00:56;100700.11;;;19.03;81.01
73073;BME280;61260;51.090;-1.786;2022-08-03T04:03:26;100703.12;;;19.02;81.46
73073;BME280;61260;51.090;-1.786;2022-08-03T04:05:55;100701.60;;;19.00;81.44
73073;BME280;61260;51.090;-1.786;2022-08-03T04:08:43;100698.84;;;18.99;81.83
73073;BME280;61260;51.090;-1.786;2022-08-03T04:11:36;100699.00;;;18.98;81.65
73073;BME280;61260;51.090;-1.786;2022-08-03T04:14:09;100698.30;;;18.96;81.80
73073;BME280;61260;51.090;-1.786;2022-08-03T04:16:43;100703.20;;;18.96;82.11
73073;BME280;61260;51.090;-1.786;2022-08-03T04:19:25;100699.58;;;18.93;82.53
73073;BME280;61260;51.090;-1.786;2022-08-03T04:22:00;100699.57;;;18.88;82.45
73073;BME280;61260;51.090;-1.786;2022-08-03T04:24:35;100698.86;;;18.87;82.18
73073;BME280;61260;51.090;-1.786;2022-08-03T04:27:10;100695.92;;;18.90;82.35
73073;BME280;61260;51.090;-1.786;2022-08-03T04:29:45;100702.02;;;18.91;82.41
73073;BME280;61260;51.090;-1.786;2022-08-03T04:32:16;100699.73;;;18.91;82.54
73073;BME280;61260;51.090;-1.786;2022-08-03T04:34:47;100698.70;;;18.88;83.06
73073;BME280;61260;51.090;-1.786;2022-08-03T04:37:21;100696.25;;;18.88;82.84
73073;BME280;61260;51.090;-1.786;2022-08-03T04:39:54;100698.62;;;18.89;82.89
73073;BME280;61260;51.090;-1.786;2022-08-03T04:42:27;100696.72;;;18.91;82.67
73073;BME280;61260;51.090;-1.786;2022-08-03T04:44:57;100702.65;;;18.93;82.57
73073;BME280;61260;51.090;-1.786;2022-08-03T04:47:27;100696.87;;;18.95;82.52
73073;BME280;61260;51.090;-1.786;2022-08-03T04:49:57;100693.06;;;18.98;82.45
73073;BME280;61260;51.090;-1.786;2022-08-03T04:52:28;100691.17;;;19.00;82.54
73073;BME280;61260;51.090;-1.786;2022-08-03T04:54:58;100684.84;;;18.99;82.68
73073;BME280;61260;51.090;-1.786;2022-08-03T04:57:28;100686.75;;;18.97;82.67
73073;BME280;61260;51.090;-1.786;2022-08-03T04:59:58;100684.91;;;18.99;82.74
73073;BME280;61260;51.090;-1.786;2022-08-03T05:02:28;100683.82;;;19.01;82.61
73073;BME280;61260;51.090;-1.786;2022-08-03T05:04:58;100685.31;;;19.01;82.81
73073;BME280;61260;51.090;-1.786;2022-08-03T05:07:28;100684.69;;;19.01;82.77
73073;BME280;61260;51.090;-1.786;2022-08-03T05:09:58;100686.27;;;19.02;82.78
73073;BME280;61260;51.090;-1.786;2022-08-03T05:12:27;100685.39;;;19.04;82.85
73073;BME280;61260;51.090;-1.786;2022-08-03T05:14:57;100687.94;;;19.04;82.98
73073;BME280;61260;51.090;-1.786;2022-08-03T05:17:28;100689.91;;;19.04;83.41
73073;BME280;61260;51.090;-1.786;2022-08-03T05:19:58;100695.05;;;19.02;83.36
73073;BME280;61260;51.090;-1.786;2022-08-03T05:22:28;100696.15;;;19.01;83.37
73073;BME280;61260;51.090;-1.786;2022-08-03T05:24:57;100698.30;;;19.03;83.33
73073;BME280;61260;51.090;-1.786;2022-08-03T05:27:27;100697.02;;;19.06;83.22
73073;BME280;61260;51.090;-1.786;2022-08-03T05:29:57;100699.46;;;19.07;83.19
73073;BME280;61260;51.090;-1.786;2022-08-03T05:32:27;100699.95;;;19.09;83.42
73073;BME280;61260;51.090;-1.786;2022-08-03T05:34:57;100706.12;;;19.06;83.26
73073;BME280;61260;51.090;-1.786;2022-08-03T05:37:26;100704.05;;;19.07;83.28
73073;BME280;61260;51.090;-1.786;2022-08-03T05:39:56;100708.08;;;19.11;83.57
73073;BME280;61260;51.090;-1.786;2022-08-03T05:42:26;100707.77;;;19.11;83.64
73073;BME280;61260;51.090;-1.786;2022-08-03T05:44:56;100712.12;;;19.09;83.37
73073;BME280;61260;51.090;-1.786;2022-08-03T05:47:25;100709.04;;;19.10;83.44
73073;BME280;61260;51.090;-1.786;2022-08-03T05:49:55;100714.64;;;19.14;83.16
73073;BME280;61260;51.090;-1.786;2022-08-03T05:52:26;100717.80;;;19.15;83.67
73073;BME280;61260;51.090;-1.786;2022-08-03T05:54:55;100714.73;;;19.18;83.40
73073;BME280;61260;51.090;-1.786;2022-08-03T05:57:25;100717.75;;;19.24;83.30
73073;BME280;61260;51.090;-1.786;2022-08-03T05:59:55;100713.31;;;19.29;83.39
73073;BME280;61260;51.090;-1.786;2022-08-03T06:02:25;100713.05;;;19.33;83.10
73073;BME280;61260;51.090;-1.786;2022-08-03T06:04:55;100718.50;;;19.39;82.88
73073;BME280;61260;51.090;-1.786;2022-08-03T06:07:25;100721.41;;;19.49;82.50
73073;BME280;61260;51.090;-1.786;2022-08-03T06:09:55;100718.70;;;19.59;82.18
73073;BME280;61260;51.090;-1.786;2022-08-03T06:12:24;100718.43;;;19.64;81.94
73073;BME280;61260;51.090;-1.786;2022-08-03T06:14:54;100722.77;;;19.69;81.75
73073;BME280;61260;51.090;-1.786;2022-08-03T06:17:24;100719.43;;;19.73;81.47
73073;BME280;61260;51.090;-1.786;2022-08-03T06:19:55;100720.31;;;19.73;81.39
73073;BME280;61260;51.090;-1.786;2022-08-03T06:22:24;100719.20;;;19.68;81.61
73073;BME280;61260;51.090;-1.786;2022-08-03T06:24:54;100720.98;;;19.62;81.73
73073;BME280;61260;51.090;-1.786;2022-08-03T06:27:25;100723.52;;;19.60;81.88
73073;BME280;61260;51.090;-1.786;2022-08-03T06:29:55;100718.84;;;19.61;81.87
73073;BME280;61260;51.090;-1.786;2022-08-03T06:32:25;100721.84;;;19.62;81.85
73073;BME280;61260;51.090;-1.786;2022-08-03T06:34:55;100724.82;;;19.69;81.66
73073;BME280;61260;51.090;-1.786;2022-08-03T06:37:25;100722.17;;;19.80;81.52
73073;BME280;61260;51.090;-1.786;2022-08-03T06:39:56;100715.89;;;19.85;81.28
73073;BME280;61260;51.090;-1.786;2022-08-03T06:42:25;100717.52;;;19.90;81.13
73073;BME280;61260;51.090;-1.786;2022-08-03T06:44:55;100715.36;;;19.97;80.89
73073;BME280;61260;51.090;-1.786;2022-08-03T06:47:25;100712.39;;;20.11;80.61
73073;BME280;61260;51.090;-1.786;2022-08-03T06:49:55;100716.58;;;20.28;79.99
73073;BME280;61260;51.090;-1.786;2022-08-03T06:52:25;100713.87;;;20.41;79.48
73073;BME280;61260;51.090;-1.786;2022-08-03T06:54:55;100719.48;;;20.43;78.89
73073;BME280;61260;51.090;-1.786;2022-08-03T06:57:24;100723.82;;;20.47;78.95
73073;BME280;61260;51.090;-1.786;2022-08-03T06:59:54;100726.13;;;20.56;78.55
73073;BME280;61260;51.090;-1.786;2022-08-03T07:02:29;100725.80;;;20.56;78.39
73073;BME280;61260;51.090;-1.786;2022-08-03T07:04:58;100722.19;;;20.52;78.26
73073;BME280;61260;51.090;-1.786;2022-08-03T07:07:28;100722.48;;;20.47;78.54
73073;BME280;61260;51.090;-1.786;2022-08-03T07:09:58;100715.15;;;20.50;78.44
73073;BME280;61260;51.090;-1.786;2022-08-03T07:12:28;100712.47;;;20.59;78.32
73073;BME280;61260;51.090;-1.786;2022-08-03T07:15:00;100709.10;;;20.73;78.13
73073;BME280;61260;51.090;-1.786;2022-08-03T07:17:32;100716.17;;;20.95;77.61
73073;BME280;61260;51.090;-1.786;2022-08-03T07:20:01;100723.61;;;21.15;76.76
73073;BME280;61260;51.090;-1.786;2022-08-03T07:22:31;100726.09;;;21.12;76.44
73073;BME280;61260;51.090;-1.786;2022-08-03T07:25:01;100726.92;;;20.98;76.44
73073;BME280;61260;51.090;-1.786;2022-08-03T07:27:32;100733.59;;;20.89;76.91
73073;BME280;61260;51.090;-1.786;2022-08-03T07:30:04;100733.88;;;20.92;76.76
73073;BME280;61260;51.090;-1.786;2022-08-03T07:32:34;100737.77;;;20.94;76.67
73073;BME280;61260;51.090;-1.786;2022-08-03T07:35:04;100734.77;;;20.91;76.73
73073;BME280;61260;51.090;-1.786;2022-08-03T07:37:34;100733.83;;;20.89;76.70
73073;BME280;61260;51.090;-1.786;2022-08-03T07:40:06;100737.70;;;20.92;76.82
73073;BME280;61260;51.090;-1.786;2022-08-03T07:42:36;100734.34;;;20.95;76.74
73073;BME280;61260;51.090;-1.786;2022-08-03T07:45:08;100728.60;;;20.99;76.44
73073;BME280;61260;51.090;-1.786;2022-08-03T07:47:38;100734.69;;;21.01;76.56
73073;BME280;61260;51.090;-1.786;2022-08-03T07:50:09;100739.64;;;20.97;76.37
73073;BME280;61260;51.090;-1.786;2022-08-03T07:52:39;100737.35;;;20.87;76.68
73073;BME280;61260;51.090;-1.786;2022-08-03T07:55:21;100743.98;;;20.89;76.83
73073;BME280;61260;51.090;-1.786;2022-08-03T07:58:04;100742.10;;;20.97;76.54
73073;BME280;61260;51.090;-1.786;2022-08-03T08:00:35;100743.84;;;20.99;76.58
73073;BME280;61260;51.090;-1.786;2022-08-03T08:03:05;100744.61;;;21.01;76.65
73073;BME280;61260;51.090;-1.786;2022-08-03T08:05:35;100747.73;;;21.06;76.42
73073;BME280;61260;51.090;-1.786;2022-08-03T08:08:06;100751.36;;;21.09;76.06
73073;BME280;61260;51.090;-1.786;2022-08-03T08:10:36;100748.52;;;21.08;76.18
73073;BME280;61260;51.090;-1.786;2022-08-03T08:13:06;100741.58;;;21.11;76.31
73073;BME280;61260;51.090;-1.786;2022-08-03T08:15:35;100731.82;;;21.27;75.70
73073;BME280;61260;51.090;-1.786;2022-08-03T08:18:05;100739.16;;;21.55;75.31
73073;BME280;61260;51.090;-1.786;2022-08-03T08:20:35;100742.27;;;21.71;74.73
73073;BME280;61260;51.090;-1.786;2022-08-03T08:23:07;100742.64;;;21.72;74.75
73073;BME280;61260;51.090;-1.786;2022-08-03T08:25:37;100743.80;;;21.69;74.81
73073;BME280;61260;51.090;-1.786;2022-08-03T08:28:06;100748.69;;;21.71;74.61
73073;BME280;61260;51.090;-1.786;2022-08-03T08:30:36;100749.95;;;21.72;74.50
73073;BME280;61260;51.090;-1.786;2022-08-03T08:33:06;100754.13;;;21.74;74.26
73073;BME280;61260;51.090;-1.786;2022-08-03T08:35:36;100754.02;;;21.62;74.77
73073;BME280;61260;51.090;-1.786;2022-08-03T08:38:06;100751.21;;;21.65;74.46
73073;BME280;61260;51.090;-1.786;2022-08-03T08:40:36;100756.05;;;21.79;73.96
73073;BME280;61260;51.090;-1.786;2022-08-03T08:43:07;100750.58;;;21.79;73.73
73073;BME280;61260;51.090;-1.786;2022-08-03T08:45:38;100752.11;;;21.77;74.25
73073;BME280;61260;51.090;-1.786;2022-08-03T08:48:09;100756.18;;;21.76;73.96
73073;BME280;61260;51.090;-1.786;2022-08-03T08:50:41;100756.61;;;21.73;73.92
73073;BME280;61260;51.090;-1.786;2022-08-03T08:53:13;100756.98;;;21.69;74.05
73073;BME280;61260;51.090;-1.786;2022-08-03T08:55:46;100762.79;;;21.57;74.29
73073;BME280;61260;51.090;-1.786;2022-08-03T08:58:18;100762.62;;;21.42;74.94
73073;BME280;61260;51.090;-1.786;2022-08-03T09:00:51;100761.91;;;21.17;75.77
73073;BME280;61260;51.090;-1.786;2022-08-03T09:03:20;100762.41;;;20.97;76.60
73073;BME280;61260;51.090;-1.786;2022-08-03T09:05:50;100762.48;;;20.89;77.25
73073;BME280;61260;51.090;-1.786;2022-08-03T09:08:21;100759.25;;;20.86;78.05
73073;BME280;61260;51.090;-1.786;2022-08-03T09:10:51;100756.71;;;20.83;78.41
73073;BME280;61260;51.090;-1.786;2022-08-03T09:13:21;100757.20;;;20.80;78.96
73073;BME280;61260;51.090;-1.786;2022-08-03T09:16:09;100758.81;;;20.76;78.73
73073;BME280;61260;51.090;-1.786;2022-08-03T09:18:40;100755.41;;;20.75;78.94
73073;BME280;61260;51.090;-1.786;2022-08-03T09:21:19;100756.27;;;20.77;78.91
73073;BME280;61260;51.090;-1.786;2022-08-03T09:23:50;100758.36;;;20.73;78.95
73073;BME280;61260;51.090;-1.786;2022-08-03T09:26:25;100754.83;;;20.69;78.79
73073;BME280;61260;51.090;-1.786;2022-08-03T09:29:01;100754.95;;;20.72;78.71
73073;BME280;61260;51.090;-1.786;2022-08-03T09:31:33;100754.70;;;20.73;78.99
73073;BME280;61260;51.090;-1.786;2022-08-03T09:34:06;100754.63;;;20.76;78.92
73073;BME280;61260;51.090;-1.786;2022-08-03T09:36:37;100746.23;;;20.85;78.60
73073;BME280;61260;51.090;-1.786;2022-08-03T09:39:09;100750.61;;;20.92;78.18
73073;BME280;61260;51.090;-1.786;2022-08-03T09:41:39;100749.11;;;20.94;78.23
73073;BME280;61260;51.090;-1.786;2022-08-03T09:44:09;100750.73;;;20.99;77.89
73073;BME280;61260;51.090;-1.786;2022-08-03T09:46:53;100748.36;;;20.98;77.78
73073;BME280;61260;51.090;-1.786;2022-08-03T09:49:23;100741.10;;;21.12;77.51
73073;BME280;61260;51.090;-1.786;2022-08-03T09:51:54;100740.70;;;21.29;77.03
73073;BME280;61260;51.090;-1.786;2022-08-03T09:54:30;100746.61;;;21.40;76.56
73073;BME280;61260;51.090;-1.786;2022-08-03T09:57:01;100747.55;;;21.50;76.34
73073;BME280;61260;51.090;-1.786;2022-08-03T09:59:32;100750.68;;;21.62;75.77
73073;BME280;61260;51.090;-1.786;2022-08-03T10:02:02;100756.91;;;21.68;75.32
73073;BME280;61260;51.090;-1.786;2022-08-03T10:04:32;100756.77;;;21.66;74.91
73073;BME280;61260;51.090;-1.786;2022-08-03T10:07:06;100756.16;;;21.62;74.89
73073;BME280;61260;51.090;-1.786;2022-08-03T10:09:37;100760.53;;;21.59;75.16
73073;BME280;61260;51.090;-1.786;2022-08-03T10:12:11;100759.41;;;21.54;75.17
73073;BME280;61260;51.090;-1.786;2022-08-03T10:14:42;100753.95;;;21.53;75.24
73073;BME280;61260;51.090;-1.786;2022-08-03T10:17:13;100753.61;;;21.54;75.23
73073;BME280;61260;51.090;-1.786;2022-08-03T10:19:42;100753.53;;;21.63;75.20
73073;BME280;61260;51.090;-1.786;2022-08-03T10:22:13;100757.73;;;21.78;74.63
73073;BME280;61260;51.090;-1.786;2022-08-03T10:24:51;100754.42;;;21.83;74.43
73073;BME280;61260;51.090;-1.786;2022-08-03T10:27:20;100751.30;;;21.92;74.14
73073;BME280;61260;51.090;-1.786;2022-08-03T10:29:54;100755.02;;;21.99;74.10
73073;BME280;61260;51.090;-1.786;2022-08-03T10:32:29;100755.95;;;22.08;73.75
73073;BME280;61260;51.090;-1.786;2022-08-03T10:35:04;100753.46;;;22.15;73.27
73073;BME280;61260;51.090;-1.786;2022-08-03T10:37:39;100755.23;;;22.20;72.94
73073;BME280;61260;51.090;-1.786;2022-08-03T10:40:13;100753.91;;;22.24;72.61
73073;BME280;61260;51.090;-1.786;2022-08-03T10:42:45;100754.13;;;22.26;72.75
73073;BME280;61260;51.090;-1.786;2022-08-03T10:45:19;100754.10;;;22.32;72.40
73073;BME280;61260;51.090;-1.786;2022-08-03T10:47:51;100748.92;;;22.33;72.28
73073;BME280;61260;51.090;-1.786;2022-08-03T10:50:23;100745.77;;;22.40;72.27
73073;BME280;61260;51.090;-1.786;2022-08-03T10:52:58;100751.39;;;22.41;72.15
73073;BME280;61260;51.090;-1.786;2022-08-03T10:55:33;100757.27;;;22.41;72.11
73073;BME280;61260;51.090;-1.786;2022-08-03T10:58:49;100765.71;;;22.27;72.23
73073;BME280;61260;51.090;-1.786;2022-08-03T11:04:17;100757.83;;;22.28;72.34
73073;BME280;61260;51.090;-1.786;2022-08-03T11:06:54;100763.20;;;22.24;72.29
73073;BME280;61260;51.090;-1.786;2022-08-03T11:09:43;100760.02;;;22.24;72.46
73073;BME280;61260;51.090;-1.786;2022-08-03T11:12:23;100759.09;;;22.33;72.42
73073;BME280;61260;51.090;-1.786;2022-08-03T11:14:54;100756.95;;;22.28;72.50
73073;BME280;61260;51.090;-1.786;2022-08-03T11:17:25;100757.14;;;22.25;72.54
73073;BME280;61260;51.090;-1.786;2022-08-03T11:19:55;100759.83;;;22.22;72.54
73073;BME280;61260;51.090;-1.786;2022-08-03T11:22:24;100761.55;;;22.18;72.66
73073;BME280;61260;51.090;-1.786;2022-08-03T11:25:14;100763.97;;;22.08;72.76
73073;BME280;61260;51.090;-1.786;2022-08-03T11:27:44;100758.86;;;21.97;73.36
73073;BME280;61260;51.090;-1.786;2022-08-03T11:30:23;100759.92;;;21.88;73.61
73073;BME280;61260;51.090;-1.786;2022-08-03T11:32:58;100763.48;;;21.83;73.75
73073;BME280;61260;51.090;-1.786;2022-08-03T11:35:29;100765.05;;;21.78;74.04
73073;BME280;61260;51.090;-1.786;2022-08-03T11:38:09;100764.31;;;21.79;74.22
73073;BME280;61260;51.090;-1.786;2022-08-03T11:40:43;100759.91;;;21.89;73.84
73073;BME280;61260;51.090;-1.786;2022-08-03T11:43:44;100759.57;;;21.98;73.98
73073;BME280;61260;51.090;-1.786;2022-08-03T11:46:15;100763.30;;;22.17;73.28
73073;BME280;61260;51.090;-1.786;2022-08-03T11:48:49;100759.03;;;22.39;72.62
73073;BME280;61260;51.090;-1.786;2022-08-03T11:51:23;100758.94;;;22.58;71.64
73073;BME280;61260;51.090;-1.786;2022-08-03T11:53:55;100757.02;;;22.64;71.31
73073;BME280;61260;51.090;-1.786;2022-08-03T11:56:26;100753.47;;;22.62;71.35
73073;BME280;61260;51.090;-1.786;2022-08-03T11:58:57;100755.29;;;22.67;71.20
73073;BME280;61260;51.090;-1.786;2022-08-03T12:01:27;100755.04;;;22.68;71.10
73073;BME280;61260;51.090;-1.786;2022-08-03T12:04:03;100755.27;;;22.68;70.84
73073;BME280;61260;51.090;-1.786;2022-08-03T12:06:33;100759.23;;;22.75;70.63
73073;BME280;61260;51.090;-1.786;2022-08-03T12:09:22;100762.21;;;22.78;70.54
73073;BME280;61260;51.090;-1.786;2022-08-03T12:11:52;100766.55;;;22.79;70.51
73073;BME280;61260;51.090;-1.786;2022-08-03T12:14:22;100762.96;;;22.81;70.18
73073;BME280;61260;51.090;-1.786;2022-08-03T12:16:51;100763.04;;;22.76;70.56
73073;BME280;61260;51.090;-1.786;2022-08-03T12:19:21;100760.05;;;22.83;70.34
73073;BME280;61260;51.090;-1.786;2022-08-03T12:21:51;100765.98;;;22.91;69.94
73073;BME280;61260;51.090;-1.786;2022-08-03T12:24:21;100770.39;;;22.93;69.70
73073;BME280;61260;51.090;-1.786;2022-08-03T12:26:51;100767.38;;;22.93;69.91
73073;BME280;61260;51.090;-1.786;2022-08-03T12:29:21;100763.00;;;22.97;69.82
73073;BME280;61260;51.090;-1.786;2022-08-03T12:31:53;100760.00;;;23.10;69.86
73073;BME280;61260;51.090;-1.786;2022-08-03T12:34:22;100759.78;;;23.20;69.54
73073;BME280;61260;51.090;-1.786;2022-08-03T12:36:53;100762.95;;;23.17;69.29
73073;BME280;61260;51.090;-1.786;2022-08-03T12:39:26;100764.86;;;23.11;69.48
73073;BME280;61260;51.090;-1.786;2022-08-03T12:41:57;100767.75;;;23.09;69.37
73073;BME280;61260;51.090;-1.786;2022-08-03T12:44:32;100765.96;;;23.11;69.44
73073;BME280;61260;51.090;-1.786;2022-08-03T12:47:03;100767.34;;;23.05;69.52
73073;BME280;61260;51.090;-1.786;2022-08-03T12:49:46;100772.99;;;22.90;69.77
73073;BME280;61260;51.090;-1.786;2022-08-03T12:52:19;100772.17;;;22.92;69.90
73073;BME280;61260;51.090;-1.786;2022-08-03T12:54:57;100769.61;;;22.93;69.90
73073;BME280;61260;51.090;-1.786;2022-08-03T12:57:40;100772.56;;;22.97;70.00
73073;BME280;61260;51.090;-1.786;2022-08-03T13:00:16;100771.69;;;22.97;69.88
73073;BME280;61260;51.090;-1.786;2022-08-03T13:02:46;100772.70;;;22.98;69.81
73073;BME280;61260;51.090;-1.786;2022-08-03T13:05:27;100772.81;;;23.01;69.81
73073;BME280;61260;51.090;-1.786;2022-08-03T13:07:57;100767.89;;;23.05;69.60
73073;BME280;61260;51.090;-1.786;2022-08-03T13:10:31;100756.80;;;23.07;69.31
73073;BME280;61260;51.090;-1.786;2022-08-03T13:13:02;100757.06;;;23.12;69.01